Terminal Aerodrome Forecast
Issued by NWS

Home | Current Version | Previous Version | Graphics & Text | Print | Product List | Glossary On
Versions: 1 2 3 4 5 6 7 8 9 10 11 12 13 14 15 16 17 18 19 20 21 22 23 24 25 26 27 28 29 30 31 32
000
FTUS43 KLOT 291405 AAA
TAFDPA
TAF AMD
KDPA 291405Z 2914/3012 VRB03KT 6SM BR VCSH SCT010 BKN030
     FM291600 08006KT P6SM VCSH SCT012 BKN030
     FM292000 06006KT P6SM VCSH SCT020 BKN035
     FM300000 15004KT P6SM BKN030 BKN250
     FM300800 21005KT 5SM -SHRA BR BKN010 OVC018=

USA.gov is the U.S. government's official web portal to all federal, state and local government web resources and services.